sensor_id;sensor_type;location;lat;lon;timestamp;pressure;altitude;pressure_sealevel;temperature;humidity
38400;BME280;24180;42.676;23.320;2024-03-08T00:01:35;95021.19;;;4.05;99.77
38400;BME280;24180;42.676;23.320;2024-03-08T00:04:01;95009.97;;;4.01;100.00
38400;BME280;24180;42.676;23.320;2024-03-08T00:06:26;95010.53;;;3.98;100.00
38400;BME280;24180;42.676;23.320;2024-03-08T00:08:52;95011.28;;;3.99;98.58
38400;BME280;24180;42.676;23.320;2024-03-08T00:11:17;95020.84;;;4.12;99.85
38400;BME280;24180;42.676;23.320;2024-03-08T00:13:43;95027.28;;;4.09;100.00
38400;BME280;24180;42.676;23.320;2024-03-08T00:16:10;95025.47;;;4.10;100.00
38400;BME280;24180;42.676;23.320;2024-03-08T00:18:35;95028.78;;;4.10;99.44
38400;BME280;24180;42.676;23.320;2024-03-08T00:21:01;95021.94;;;4.06;99.36
38400;BME280;24180;42.676;23.320;2024-03-08T00:23:26;95018.84;;;4.09;98.47
38400;BME280;24180;42.676;23.320;2024-03-08T00:25:53;95021.59;;;4.12;99.20
38400;BME280;24180;42.676;23.320;2024-03-08T00:28:20;95006.88;;;4.04;99.17
38400;BME280;24180;42.676;23.320;2024-03-08T00:30:45;95007.06;;;4.08;98.87
38400;BME280;24180;42.676;23.320;2024-03-08T00:33:11;95008.31;;;4.10;99.56
38400;BME280;24180;42.676;23.320;2024-03-08T00:35:37;95014.69;;;4.13;100.00
38400;BME280;24180;42.676;23.320;2024-03-08T00:38:02;94993.81;;;4.06;100.00
38400;BME280;24180;42.676;23.320;2024-03-08T00:40:28;94998.72;;;4.02;99.71
38400;BME280;24180;42.676;23.320;2024-03-08T00:42:54;95009.06;;;4.11;99.42
38400;BME280;24180;42.676;23.320;2024-03-08T00:45:19;95006.03;;;4.09;100.00
38400;BME280;24180;42.676;23.320;2024-03-08T00:47:45;95003.94;;;4.11;98.00
38400;BME280;24180;42.676;23.320;2024-03-08T00:50:10;94990.63;;;3.95;98.64
38400;BME280;24180;42.676;23.320;2024-03-08T00:52:37;94985.59;;;3.90;98.55
38400;BME280;24180;42.676;23.320;2024-03-08T00:55:03;95000.38;;;3.93;97.63
38400;BME280;24180;42.676;23.320;2024-03-08T00:57:28;94995.72;;;3.95;99.37
38400;BME280;24180;42.676;23.320;2024-03-08T00:59:55;94981.66;;;3.79;98.04
38400;BME280;24180;42.676;23.320;2024-03-08T01:02:21;94985.44;;;3.81;97.70
38400;BME280;24180;42.676;23.320;2024-03-08T01:04:48;94994.56;;;3.87;98.62
38400;BME280;24180;42.676;23.320;2024-03-08T01:07:14;94986.69;;;3.84;98.81
38400;BME280;24180;42.676;23.320;2024-03-08T01:09:39;94990.00;;;3.84;98.48
38400;BME280;24180;42.676;23.320;2024-03-08T01:12:05;94969.75;;;3.69;98.57
38400;BME280;24180;42.676;23.320;2024-03-08T01:14:32;94984.91;;;3.84;98.49
38400;BME280;24180;42.676;23.320;2024-03-08T01:16:58;94982.41;;;3.79;99.73
38400;BME280;24180;42.676;23.320;2024-03-08T01:19:24;94969.06;;;3.63;98.98
38400;BME280;24180;42.676;23.320;2024-03-08T01:21:50;94978.88;;;3.75;98.71
38400;BME280;24180;42.676;23.320;2024-03-08T01:24:16;94983.38;;;3.64;99.86
38400;BME280;24180;42.676;23.320;2024-03-08T01:26:42;94973.72;;;3.61;99.46
38400;BME280;24180;42.676;23.320;2024-03-08T01:29:07;94969.34;;;3.62;99.24
38400;BME280;24180;42.676;23.320;2024-03-08T01:31:33;94975.63;;;3.69;100.00
38400;BME280;24180;42.676;23.320;2024-03-08T01:33:59;94973.06;;;3.69;100.00
38400;BME280;24180;42.676;23.320;2024-03-08T01:36:24;94968.16;;;3.73;99.34
38400;BME280;24180;42.676;23.320;2024-03-08T01:38:51;94956.81;;;3.60;98.27
38400;BME280;24180;42.676;23.320;2024-03-08T01:41:17;94963.03;;;3.73;99.26
38400;BME280;24180;42.676;23.320;2024-03-08T01:43:43;94963.03;;;3.73;100.00
38400;BME280;24180;42.676;23.320;2024-03-08T01:46:09;94961.53;;;3.72;99.70
38400;BME280;24180;42.676;23.320;2024-03-08T01:48:38;94950.00;;;3.75;99.61
38400;BME280;24180;42.676;23.320;2024-03-08T01:51:04;94948.94;;;3.76;98.56
38400;BME280;24180;42.676;23.320;2024-03-08T01:53:31;94952.63;;;3.69;98.08
38400;BME280;24180;42.676;23.320;2024-03-08T01:55:58;94962.03;;;3.74;98.53
38400;BME280;24180;42.676;23.320;2024-03-08T01:58:27;94967.00;;;3.84;99.61
38400;BME280;24180;42.676;23.320;2024-03-08T02:00:54;94960.91;;;3.80;99.36
38400;BME280;24180;42.676;23.320;2024-03-08T02:03:21;94934.72;;;3.69;99.04
38400;BME280;24180;42.676;23.320;2024-03-08T02:05:47;94962.38;;;3.86;98.17
38400;BME280;24180;42.676;23.320;2024-03-08T02:08:14;94955.16;;;3.88;99.13
38400;BME280;24180;42.676;23.320;2024-03-08T02:10:44;94952.91;;;3.87;97.96
38400;BME280;24180;42.676;23.320;2024-03-08T02:13:10;94941.97;;;3.81;98.48
38400;BME280;24180;42.676;23.320;2024-03-08T02:15:56;94964.00;;;3.96;98.43
38400;BME280;24180;42.676;23.320;2024-03-08T02:18:23;94964.47;;;3.98;97.93
38400;BME280;24180;42.676;23.320;2024-03-08T02:20:55;94962.13;;;4.02;98.40
38400;BME280;24180;42.676;23.320;2024-03-08T02:23:22;94957.78;;;4.02;97.53
38400;BME280;24180;42.676;23.320;2024-03-08T02:25:50;94951.59;;;3.89;97.08
38400;BME280;24180;42.676;23.320;2024-03-08T02:28:16;94973.88;;;4.03;96.81
38400;BME280;24180;42.676;23.320;2024-03-08T02:30:44;94964.47;;;3.98;96.62
38400;BME280;24180;42.676;23.320;2024-03-08T02:33:09;94972.44;;;3.96;96.20
38400;BME280;24180;42.676;23.320;2024-03-08T02:35:35;94966.84;;;3.94;95.10
38400;BME280;24180;42.676;23.320;2024-03-08T02:38:02;94965.84;;;3.77;95.06
38400;BME280;24180;42.676;23.320;2024-03-08T02:40:29;94958.56;;;3.84;96.59
38400;BME280;24180;42.676;23.320;2024-03-08T02:42:54;94970.50;;;3.88;94.86
38400;BME280;24180;42.676;23.320;2024-03-08T02:45:20;94964.38;;;3.70;89.83
38400;BME280;24180;42.676;23.320;2024-03-08T02:47:46;94977.16;;;3.70;89.65
38400;BME280;24180;42.676;23.320;2024-03-08T02:50:11;94966.25;;;3.65;92.63
38400;BME280;24180;42.676;23.320;2024-03-08T02:52:37;94982.19;;;3.76;92.65
38400;BME280;24180;42.676;23.320;2024-03-08T02:55:03;94975.38;;;3.71;94.00
38400;BME280;24180;42.676;23.320;2024-03-08T02:57:28;94988.28;;;3.80;94.04
38400;BME280;24180;42.676;23.320;2024-03-08T02:59:54;94981.94;;;3.77;93.25
38400;BME280;24180;42.676;23.320;2024-03-08T03:02:19;94979.38;;;3.77;91.46
38400;BME280;24180;42.676;23.320;2024-03-08T03:04:45;94981.38;;;3.80;91.24
38400;BME280;24180;42.676;23.320;2024-03-08T03:07:10;94974.31;;;3.72;89.85
38400;BME280;24180;42.676;23.320;2024-03-08T03:09:36;94988.06;;;3.76;91.53
38400;BME280;24180;42.676;23.320;2024-03-08T03:12:02;94977.91;;;3.71;90.39
38400;BME280;24180;42.676;23.320;2024-03-08T03:14:28;94974.97;;;3.64;91.30
38400;BME280;24180;42.676;23.320;2024-03-08T03:16:53;94971.28;;;3.70;91.46
38400;BME280;24180;42.676;23.320;2024-03-08T03:19:20;94994.50;;;3.73;89.23
38400;BME280;24180;42.676;23.320;2024-03-08T03:21:45;94989.59;;;3.77;88.02
38400;BME280;24180;42.676;23.320;2024-03-08T03:24:11;94983.66;;;3.63;87.03
38400;BME280;24180;42.676;23.320;2024-03-08T03:26:40;94990.50;;;3.67;87.80
38400;BME280;24180;42.676;23.320;2024-03-08T03:29:06;94983.25;;;3.56;86.16
38400;BME280;24180;42.676;23.320;2024-03-08T03:31:34;95002.25;;;3.68;88.33
38400;BME280;24180;42.676;23.320;2024-03-08T03:33:59;94992.38;;;3.62;86.64
38400;BME280;24180;42.676;23.320;2024-03-08T03:36:28;94989.06;;;3.61;86.16
38400;BME280;24180;42.676;23.320;2024-03-08T03:38:54;95006.88;;;3.66;85.38
38400;BME280;24180;42.676;23.320;2024-03-08T03:41:32;95007.41;;;3.63;86.92
38400;BME280;24180;42.676;23.320;2024-03-08T03:43:58;95019.84;;;3.70;86.14
38400;BME280;24180;42.676;23.320;2024-03-08T03:46:24;94976.72;;;3.44;86.26
38400;BME280;24180;42.676;23.320;2024-03-08T03:48:49;95015.09;;;3.63;85.85
38400;BME280;24180;42.676;23.320;2024-03-08T03:51:15;95020.41;;;3.67;86.47
38400;BME280;24180;42.676;23.320;2024-03-08T03:53:40;95014.81;;;3.65;86.11
38400;BME280;24180;42.676;23.320;2024-03-08T03:56:06;94995.53;;;3.54;87.45
38400;BME280;24180;42.676;23.320;2024-03-08T03:58:34;95021.75;;;3.64;87.20
38400;BME280;24180;42.676;23.320;2024-03-08T04:01:00;95011.84;;;3.58;87.30
38400;BME280;24180;42.676;23.320;2024-03-08T04:03:25;95021.25;;;3.62;85.07
38400;BME280;24180;42.676;23.320;2024-03-08T04:05:51;95008.81;;;3.56;85.99
38400;BME280;24180;42.676;23.320;2024-03-08T04:08:17;95008.81;;;3.56;86.39
38400;BME280;24180;42.676;23.320;2024-03-08T04:10:42;95015.97;;;3.54;85.15
38400;BME280;24180;42.676;23.320;2024-03-08T04:13:08;95013.41;;;3.54;88.14
38400;BME280;24180;42.676;23.320;2024-03-08T04:15:35;95039.09;;;3.67;87.34
38400;BME280;24180;42.676;23.320;2024-03-08T04:18:00;95032.31;;;3.58;84.96
38400;BME280;24180;42.676;23.320;2024-03-08T04:20:27;95042.53;;;3.58;84.33
38400;BME280;24180;42.676;23.320;2024-03-08T04:22:52;95043.41;;;3.48;84.34
38400;BME280;24180;42.676;23.320;2024-03-08T04:25:18;95043.69;;;3.46;83.66
38400;BME280;24180;42.676;23.320;2024-03-08T04:27:44;95031.56;;;3.33;86.84
38400;BME280;24180;42.676;23.320;2024-03-08T04:30:11;95050.94;;;3.39;85.62
38400;BME280;24180;42.676;23.320;2024-03-08T04:32:36;95044.06;;;3.35;86.95
38400;BME280;24180;42.676;23.320;2024-03-08T04:35:03;95059.91;;;3.37;86.19
38400;BME280;24180;42.676;23.320;2024-03-08T04:37:29;95043.91;;;3.26;86.75
38400;BME280;24180;42.676;23.320;2024-03-08T04:39:57;95056.09;;;3.34;87.09
38400;BME280;24180;42.676;23.320;2024-03-08T04:42:24;95023.13;;;3.09;86.46
38400;BME280;24180;42.676;23.320;2024-03-08T04:44:50;95059.69;;;3.33;87.11
38400;BME280;24180;42.676;23.320;2024-03-08T04:47:16;95061.25;;;3.29;89.14
38400;BME280;24180;42.676;23.320;2024-03-08T04:49:43;95058.72;;;3.29;88.45
38400;BME280;24180;42.676;23.320;2024-03-08T04:52:08;95063.81;;;3.29;88.07
38400;BME280;24180;42.676;23.320;2024-03-08T04:54:34;95064.84;;;3.28;87.83
38400;BME280;24180;42.676;23.320;2024-03-08T04:56:59;95065.84;;;3.32;88.88
38400;BME280;24180;42.676;23.320;2024-03-08T04:59:26;95071.91;;;3.36;88.15
38400;BME280;24180;42.676;23.320;2024-03-08T05:01:52;95071.91;;;3.36;89.27
38400;BME280;24180;42.676;23.320;2024-03-08T05:04:17;95058.22;;;3.27;88.95
38400;BME280;24180;42.676;23.320;2024-03-08T05:06:43;95053.38;;;3.25;89.86
38400;BME280;24180;42.676;23.320;2024-03-08T05:09:08;95061.41;;;3.38;90.65
38400;BME280;24180;42.676;23.320;2024-03-08T05:11:45;95079.22;;;3.48;88.75
38400;BME280;24180;42.676;23.320;2024-03-08T05:14:11;95044.69;;;3.26;90.09
38400;BME280;24180;42.676;23.320;2024-03-08T05:16:37;95078.97;;;3.44;88.95
38400;BME280;24180;42.676;23.320;2024-03-08T05:19:03;95076.19;;;3.41;89.02
38400;BME280;24180;42.676;23.320;2024-03-08T05:21:28;95086.34;;;3.51;89.88
38400;BME280;24180;42.676;23.320;2024-03-08T05:23:54;95093.00;;;3.47;88.59
38400;BME280;24180;42.676;23.320;2024-03-08T05:26:20;95097.38;;;3.46;88.15
38400;BME280;24180;42.676;23.320;2024-03-08T05:28:47;95092.78;;;3.43;88.39
38400;BME280;24180;42.676;23.320;2024-03-08T05:31:20;95089.75;;;3.41;88.52
38400;BME280;24180;42.676;23.320;2024-03-08T05:33:49;95107.81;;;3.50;89.53
38400;BME280;24180;42.676;23.320;2024-03-08T05:36:15;95108.47;;;3.61;90.48
38400;BME280;24180;42.676;23.320;2024-03-08T05:38:42;95112.41;;;3.72;89.36
38400;BME280;24180;42.676;23.320;2024-03-08T05:41:09;95116.78;;;3.71;89.16
38400;BME280;24180;42.676;23.320;2024-03-08T05:43:34;95104.13;;;3.61;89.43
38400;BME280;24180;42.676;23.320;2024-03-08T05:46:00;95128.31;;;3.69;88.70
38400;BME280;24180;42.676;23.320;2024-03-08T05:48:25;95111.78;;;3.61;88.15
38400;BME280;24180;42.676;23.320;2024-03-08T05:50:51;95130.31;;;3.72;86.75
38400;BME280;24180;42.676;23.320;2024-03-08T05:53:16;95129.28;;;3.73;86.52
38400;BME280;24180;42.676;23.320;2024-03-08T05:55:42;95139.03;;;3.71;85.93
38400;BME280;24180;42.676;23.320;2024-03-08T05:58:07;95136.72;;;3.69;87.64
38400;BME280;24180;42.676;23.320;2024-03-08T06:00:34;95139.25;;;3.75;85.91
38400;BME280;24180;42.676;23.320;2024-03-08T06:03:00;95137.03;;;3.68;86.26
38400;BME280;24180;42.676;23.320;2024-03-08T06:05:25;95145.13;;;3.75;86.29
38400;BME280;24180;42.676;23.320;2024-03-08T06:07:51;95142.41;;;3.66;86.19
38400;BME280;24180;42.676;23.320;2024-03-08T06:10:18;95145.63;;;3.77;86.45
38400;BME280;24180;42.676;23.320;2024-03-08T06:12:44;95134.72;;;3.66;86.93
38400;BME280;24180;42.676;23.320;2024-03-08T06:15:10;95158.66;;;3.76;86.82
38400;BME280;24180;42.676;23.320;2024-03-08T06:17:40;95156.09;;;3.76;88.94
38400;BME280;24180;42.676;23.320;2024-03-08T06:20:06;95159.91;;;3.78;88.33
38400;BME280;24180;42.676;23.320;2024-03-08T06:22:42;95151.75;;;3.76;86.60
38400;BME280;24180;42.676;23.320;2024-03-08T06:25:08;95164.28;;;3.78;85.77
38400;BME280;24180;42.676;23.320;2024-03-08T06:27:34;95164.28;;;3.78;87.48
38400;BME280;24180;42.676;23.320;2024-03-08T06:30:01;95165.03;;;3.78;87.63
38400;BME280;24180;42.676;23.320;2024-03-08T06:32:27;95169.59;;;3.81;86.99
38400;BME280;24180;42.676;23.320;2024-03-08T06:34:52;95143.66;;;3.69;83.25
38400;BME280;24180;42.676;23.320;2024-03-08T06:37:18;95173.75;;;3.77;83.34
38400;BME280;24180;42.676;23.320;2024-03-08T06:39:49;95175.81;;;3.75;84.96
38400;BME280;24180;42.676;23.320;2024-03-08T06:42:17;95152.75;;;3.56;86.25
38400;BME280;24180;42.676;23.320;2024-03-08T06:44:42;95152.53;;;3.53;85.42
38400;BME280;24180;42.676;23.320;2024-03-08T06:47:17;95176.25;;;3.82;85.05
38400;BME280;24180;42.676;23.320;2024-03-08T06:49:42;95159.50;;;3.71;83.08
38400;BME280;24180;42.676;23.320;2024-03-08T06:52:11;95170.28;;;3.68;81.48
38400;BME280;24180;42.676;23.320;2024-03-08T06:54:37;95176.94;;;3.88;83.28
38400;BME280;24180;42.676;23.320;2024-03-08T06:57:04;95183.75;;;3.97;81.23
38400;BME280;24180;42.676;23.320;2024-03-08T06:59:33;95176.44;;;3.86;80.59
38400;BME280;24180;42.676;23.320;2024-03-08T07:02:01;95184.03;;;3.96;81.68
38400;BME280;24180;42.676;23.320;2024-03-08T07:04:26;95181.19;;;3.97;80.90
38400;BME280;24180;42.676;23.320;2024-03-08T07:06:55;95190.72;;;4.16;82.45
38400;BME280;24180;42.676;23.320;2024-03-08T07:09:21;95185.50;;;4.21;80.17
38400;BME280;24180;42.676;23.320;2024-03-08T07:11:46;95189.31;;;4.24;79.16
38400;BME280;24180;42.676;23.320;2024-03-08T07:14:12;95170.66;;;4.23;79.22
38400;BME280;24180;42.676;23.320;2024-03-08T07:16:40;95195.66;;;4.31;78.96
38400;BME280;24180;42.676;23.320;2024-03-08T07:19:07;95185.97;;;4.28;77.95
38400;BME280;24180;42.676;23.320;2024-03-08T07:21:32;95190.44;;;4.36;79.40
38400;BME280;24180;42.676;23.320;2024-03-08T07:23:58;95184.31;;;4.37;80.91
38400;BME280;24180;42.676;23.320;2024-03-08T07:26:26;95196.78;;;4.63;79.37
38400;BME280;24180;42.676;23.320;2024-03-08T07:28:51;95185.28;;;4.60;77.80
38400;BME280;24180;42.676;23.320;2024-03-08T07:31:17;95193.66;;;4.66;77.92
38400;BME280;24180;42.676;23.320;2024-03-08T07:34:03;95180.50;;;4.54;78.04
38400;BME280;24180;42.676;23.320;2024-03-08T07:36:33;95190.66;;;4.59;75.74
38400;BME280;24180;42.676;23.320;2024-03-08T07:38:59;95188.09;;;4.59;76.49
38400;BME280;24180;42.676;23.320;2024-03-08T07:41:24;95189.91;;;4.58;75.76
38400;BME280;24180;42.676;23.320;2024-03-08T07:43:49;95196.53;;;4.59;76.34
38400;BME280;24180;42.676;23.320;2024-03-08T07:46:15;95199.88;;;4.60;76.14
38400;BME280;24180;42.676;23.320;2024-03-08T07:48:43;95207.28;;;4.61;77.54
38400;BME280;24180;42.676;23.320;2024-03-08T07:51:10;95201.53;;;4.70;76.97
38400;BME280;24180;42.676;23.320;2024-03-08T07:53:37;95190.44;;;4.74;76.21
38400;BME280;24180;42.676;23.320;2024-03-08T07:56:04;95203.91;;;4.66;75.80
38400;BME280;24180;42.676;23.320;2024-03-08T07:58:30;95203.19;;;4.79;76.93
38400;BME280;24180;42.676;23.320;2024-03-08T08:00:56;95198.69;;;4.71;76.82
38400;BME280;24180;42.676;23.320;2024-03-08T08:03:21;95207.81;;;4.96;77.01
38400;BME280;24180;42.676;23.320;2024-03-08T08:05:47;95206.50;;;4.99;75.58
38400;BME280;24180;42.676;23.320;2024-03-08T08:08:14;95201.38;;;4.99;74.98
38400;BME280;24180;42.676;23.320;2024-03-08T08:10:40;95210.09;;;4.98;76.98
38400;BME280;24180;42.676;23.320;2024-03-08T08:13:06;95204.69;;;4.99;75.08
38400;BME280;24180;42.676;23.320;2024-03-08T08:15:31;95205.03;;;5.11;75.07
38400;BME280;24180;42.676;23.320;2024-03-08T08:17:59;95197.16;;;5.22;73.73
38400;BME280;24180;42.676;23.320;2024-03-08T08:20:25;95195.00;;;5.29;72.78
38400;BME280;24180;42.676;23.320;2024-03-08T08:22:51;95197.03;;;5.13;73.02
38400;BME280;24180;42.676;23.320;2024-03-08T08:25:17;95195.81;;;5.43;73.33
38400;BME280;24180;42.676;23.320;2024-03-08T08:27:45;95175.47;;;5.47;72.38
38400;BME280;24180;42.676;23.320;2024-03-08T08:30:11;95198.00;;;5.77;71.70
38400;BME280;24180;42.676;23.320;2024-03-08T08:32:38;95189.09;;;5.89;71.88
38400;BME280;24180;42.676;23.320;2024-03-08T08:35:09;95197.28;;;6.18;70.23
38400;BME280;24180;42.676;23.320;2024-03-08T08:37:41;95206.50;;;6.33;68.34
38400;BME280;24180;42.676;23.320;2024-03-08T08:40:07;95199.09;;;6.18;68.69
38400;BME280;24180;42.676;23.320;2024-03-08T08:42:39;95187.75;;;5.91;66.48
38400;BME280;24180;42.676;23.320;2024-03-08T08:45:06;95188.25;;;6.21;66.63
38400;BME280;24180;42.676;23.320;2024-03-08T08:47:38;95196.56;;;6.40;67.83
38400;BME280;24180;42.676;23.320;2024-03-08T08:50:04;95184.03;;;6.39;66.74
38400;BME280;24180;42.676;23.320;2024-03-08T08:52:31;95195.97;;;6.57;66.13
38400;BME280;24180;42.676;23.320;2024-03-08T08:54:57;95192.81;;;6.60;65.68
38400;BME280;24180;42.676;23.320;2024-03-08T08:57:22;95200.16;;;6.67;64.32
38400;BME280;24180;42.676;23.320;2024-03-08T08:59:48;95193.19;;;6.67;64.60
38400;BME280;24180;42.676;23.320;2024-03-08T09:02:13;95193.94;;;6.68;64.01
38400;BME280;24180;42.676;23.320;2024-03-08T09:04:40;95189.75;;;6.36;63.02
38400;BME280;24180;42.676;23.320;2024-03-08T09:07:05;95191.63;;;6.44;63.20
38400;BME280;24180;42.676;23.320;2024-03-08T09:09:34;95196.66;;;6.49;63.32
38400;BME280;24180;42.676;23.320;2024-03-08T09:12:00;95196.34;;;6.50;63.17
38400;BME280;24180;42.676;23.320;2024-03-08T09:14:26;95185.69;;;6.57;62.97
38400;BME280;24180;42.676;23.320;2024-03-08T09:16:52;95181.69;;;6.65;64.65
38400;BME280;24180;42.676;23.320;2024-03-08T09:19:17;95171.47;;;6.37;64.90
38400;BME280;24180;42.676;23.320;2024-03-08T09:21:44;95173.25;;;6.50;64.40
38400;BME280;24180;42.676;23.320;2024-03-08T09:24:10;95184.91;;;6.70;63.29
38400;BME280;24180;42.676;23.320;2024-03-08T09:26:36;95182.38;;;6.79;62.42
38400;BME280;24180;42.676;23.320;2024-03-08T09:29:02;95173.41;;;6.90;62.17
38400;BME280;24180;42.676;23.320;2024-03-08T09:31:27;95187.88;;;7.31;61.56
38400;BME280;24180;42.676;23.320;2024-03-08T09:33:53;95178.16;;;7.59;60.24
38400;BME280;24180;42.676;23.320;2024-03-08T09:36:18;95178.09;;;7.73;58.51
38400;BME280;24180;42.676;23.320;2024-03-08T09:38:44;95167.00;;;7.64;58.82
38400;BME280;24180;42.676;23.320;2024-03-08T09:41:10;95176.69;;;7.67;58.30
38400;BME280;24180;42.676;23.320;2024-03-08T09:43:38;95181.22;;;7.61;59.36
38400;BME280;24180;42.676;23.320;2024-03-08T09:46:04;95185.81;;;7.42;59.44
38400;BME280;24180;42.676;23.320;2024-03-08T09:48:34;95170.25;;;7.47;58.99
38400;BME280;24180;42.676;23.320;2024-03-08T09:51:00;95170.56;;;7.85;59.30
38400;BME280;24180;42.676;23.320;2024-03-08T09:53:26;95174.13;;;8.24;57.05
38400;BME280;24180;42.676;23.320;2024-03-08T09:55:51;95182.38;;;8.44;57.48
38400;BME280;24180;42.676;23.320;2024-03-08T09:58:17;95165.78;;;8.19;56.38
38400;BME280;24180;42.676;23.320;2024-03-08T10:00:43;95174.41;;;8.05;56.63
38400;BME280;24180;42.676;23.320;2024-03-08T10:03:08;95161.09;;;7.63;58.24
38400;BME280;24180;42.676;23.320;2024-03-08T10:05:34;95178.13;;;7.51;58.96
38400;BME280;24180;42.676;23.320;2024-03-08T10:08:00;95175.81;;;7.40;59.89
38400;BME280;24180;42.676;23.320;2024-03-08T10:10:25;95179.53;;;7.57;60.21
38400;BME280;24180;42.676;23.320;2024-03-08T10:12:51;95178.84;;;7.74;59.96
38400;BME280;24180;42.676;23.320;2024-03-08T10:15:17;95171.59;;;7.76;59.16
38400;BME280;24180;42.676;23.320;2024-03-08T10:17:43;95166.88;;;7.69;58.64
38400;BME280;24180;42.676;23.320;2024-03-08T10:20:15;95185.38;;;7.80;60.79
38400;BME280;24180;42.676;23.320;2024-03-08T10:22:42;95184.41;;;7.67;59.42
38400;BME280;24180;42.676;23.320;2024-03-08T10:25:13;95180.78;;;7.68;60.20
38400;BME280;24180;42.676;23.320;2024-03-08T10:27:39;95172.66;;;7.83;58.75
38400;BME280;24180;42.676;23.320;2024-03-08T10:30:15;95171.84;;;8.23;58.10
38400;BME280;24180;42.676;23.320;2024-03-08T10:32:44;95158.47;;;9.42;53.12
38400;BME280;24180;42.676;23.320;2024-03-08T10:35:10;95162.56;;;10.41;49.44
38400;BME280;24180;42.676;23.320;2024-03-08T10:37:57;95165.09;;;11.37;46.04
38400;BME280;24180;42.676;23.320;2024-03-08T10:40:29;95157.78;;;11.63;45.00
38400;BME280;24180;42.676;23.320;2024-03-08T10:42:58;95165.78;;;12.72;42.72
38400;BME280;24180;42.676;23.320;2024-03-08T10:45:39;95158.56;;;13.22;40.82
38400;BME280;24180;42.676;23.320;2024-03-08T10:50:53;95157.44;;;13.83;40.08
38400;BME280;24180;42.676;23.320;2024-03-08T10:53:19;95139.22;;;14.34;38.88
38400;BME280;24180;42.676;23.320;2024-03-08T10:55:49;95153.63;;;14.86;36.30
38400;BME280;24180;42.676;23.320;2024-03-08T10:58:15;95152.91;;;14.31;38.59
38400;BME280;24180;42.676;23.320;2024-03-08T11:00:42;95150.75;;;13.66;39.22
38400;BME280;24180;42.676;23.320;2024-03-08T11:06:06;95132.50;;;11.24;45.50
38400;BME280;24180;42.676;23.320;2024-03-08T11:08:33;95132.09;;;11.01;46.67
38400;BME280;24180;42.676;23.320;2024-03-08T11:11:00;95120.59;;;10.77;46.08
38400;BME280;24180;42.676;23.320;2024-03-08T11:13:36;95140.22;;;10.78;46.86
38400;BME280;24180;42.676;23.320;2024-03-08T11:19:04;95119.91;;;10.89;45.25
38400;BME280;24180;42.676;23.320;2024-03-08T11:21:31;95126.91;;;10.88;47.67
38400;BME280;24180;42.676;23.320;2024-03-08T11:24:08;95126.53;;;10.78;47.48
38400;BME280;24180;42.676;23.320;2024-03-08T11:26:37;95132.03;;;10.76;45.85
38400;BME280;24180;42.676;23.320;2024-03-08T11:32:16;95112.66;;;12.14;44.53
38400;BME280;24180;42.676;23.320;2024-03-08T11:34:45;95124.41;;;12.23;43.60
38400;BME280;24180;42.676;23.320;2024-03-08T11:37:18;95122.94;;;11.73;43.37
38400;BME280;24180;42.676;23.320;2024-03-08T11:39:48;95122.25;;;11.52;44.40
38400;BME280;24180;42.676;23.320;2024-03-08T11:42:17;95118.28;;;11.54;44.69
38400;BME280;24180;42.676;23.320;2024-03-08T11:44:44;95121.31;;;10.99;43.18
38400;BME280;24180;42.676;23.320;2024-03-08T11:47:13;95115.78;;;10.88;44.71
38400;BME280;24180;42.676;23.320;2024-03-08T11:49:40;95116.94;;;10.78;44.12
38400;BME280;24180;42.676;23.320;2024-03-08T11:52:12;95114.78;;;10.80;46.40
38400;BME280;24180;42.676;23.320;2024-03-08T11:54:39;95102.44;;;10.65;44.85
38400;BME280;24180;42.676;23.320;2024-03-08T11:57:04;95116.09;;;10.32;46.17
38400;BME280;24180;42.676;23.320;2024-03-08T11:59:31;95109.13;;;10.03;47.13
38400;BME280;24180;42.676;23.320;2024-03-08T12:02:05;95105.47;;;9.74;48.20
38400;BME280;24180;42.676;23.320;2024-03-08T12:04:32;95104.38;;;9.54;47.98
38400;BME280;24180;42.676;23.320;2024-03-08T12:07:01;95077.13;;;9.27;49.29
38400;BME280;24180;42.676;23.320;2024-03-08T12:09:28;95083.25;;;9.14;49.62
38400;BME280;24180;42.676;23.320;2024-03-08T12:11:54;95097.50;;;9.29;49.35
38400;BME280;24180;42.676;23.320;2024-03-08T12:14:20;95103.44;;;9.12;50.88
38400;BME280;24180;42.676;23.320;2024-03-08T12:16:46;95108.03;;;9.06;51.73
38400;BME280;24180;42.676;23.320;2024-03-08T12:19:13;95096.97;;;8.89;50.34
38400;BME280;24180;42.676;23.320;2024-03-08T12:21:39;95089.09;;;8.85;50.86
38400;BME280;24180;42.676;23.320;2024-03-08T12:24:15;95093.97;;;8.60;51.28
38400;BME280;24180;42.676;23.320;2024-03-08T12:26:45;95086.88;;;8.40;51.22
38400;BME280;24180;42.676;23.320;2024-03-08T12:29:20;95083.22;;;8.24;51.02
38400;BME280;24180;42.676;23.320;2024-03-08T12:31:50;95095.50;;;8.53;50.74
38400;BME280;24180;42.676;23.320;2024-03-08T12:34:17;95088.06;;;8.69;52.96
38400;BME280;24180;42.676;23.320;2024-03-08T12:36:50;95098.34;;;8.77;52.07
38400;BME280;24180;42.676;23.320;2024-03-08T12:39:20;95092.16;;;8.70;52.37
38400;BME280;24180;42.676;23.320;2024-03-08T12:41:52;95088.81;;;8.69;53.63
38400;BME280;24180;42.676;23.320;2024-03-08T12:44:18;95091.72;;;8.42;53.34
38400;BME280;24180;42.676;23.320;2024-03-08T12:46:47;95087.00;;;8.18;54.25
38400;BME280;24180;42.676;23.320;2024-03-08T12:49:13;95060.63;;;8.03;54.60
38400;BME280;24180;42.676;23.320;2024-03-08T12:51:43;95086.84;;;8.05;54.79
38400;BME280;24180;42.676;23.320;2024-03-08T12:54:09;95065.75;;;7.86;56.61
38400;BME280;24180;42.676;23.320;2024-03-08T12:56:35;95063.28;;;7.72;56.97
38400;BME280;24180;42.676;23.320;2024-03-08T12:59:03;95065.75;;;7.77;55.74
38400;BME280;24180;42.676;23.320;2024-03-08T13:01:30;95068.47;;;7.81;54.95
38400;BME280;24180;42.676;23.320;2024-03-08T13:03:57;95080.00;;;7.92;55.41
38400;BME280;24180;42.676;23.320;2024-03-08T13:06:24;95085.47;;;7.99;54.39
38400;BME280;24180;42.676;23.320;2024-03-08T13:08:52;95086.69;;;8.02;54.75
38400;BME280;24180;42.676;23.320;2024-03-08T13:11:22;95082.13;;;7.99;54.41